Share

Pantelleria, Italy

11:30 AM CEST on April 25, 2014 (GMT +0200)
Kelibia (DTTL) Elev 98 ft | 36.85 °N, 11.08 °E | Change Station
Active Advisory: Wind

Current weather conditions updated 30 minutes ago

Partly Cloudy
Partly Cloudy
68 °F
Feels Like 68 °F
N
8
Wind Variable Wind from SSE
Sunrise 6:25 AM
Sunset 7:55 PM
Moon Waning Crescent

Today is forecast to be Much Warmer than yesterday. Times of sun and clouds.

Pressure 29.92 in
Visibility 6.2 miles
Clouds Few 2000 ft
Dew Point 57 °F
Humidity 68%
Rainfall 0.00 in
Snow Depth Not available.
UV 7 out of 16
Pollen Not available.
Air Quality Not available.
Flu Activity Not available.
METAR DTTL 250900Z 16007KT 120V230 9999 FEW020 20/14 Q1013

More Conditions Fewer Conditions

Pressure 29.92 in
Visibility 6.2 miles
Clouds Few 2000 ft
Dew Point 57 °F
Humidity 68%
Rainfall 0.00 in
Snow Depth Not available.
UV 7 out of 16
Pollen Not available.
Air Quality Not available.
Flu Activity Not available.
METAR DTTL 250900Z 16007KT 120V230 9999 FEW020 20/14 Q1013

More Conditions Fewer Conditions

10-Day Weather Forecast

Almanac

Astronomy

Apr. 25, 2014 Rise Set
Actual Time 6:25 AM CEST 7:55 PM CEST
Civil Twilight 5:58 AM CEST 8:22 PM CEST
Nautical Twilight 5:25 AM CEST 8:55 PM CEST
Astronomical Twilight 4:50 AM CEST 9:30 PM CEST
Moon 3:56 AM CEST 4:04 PM CEST
Length of Visible Light 14h 24m
Length of Day
13h 29m
Tomorrow will be 2m 6s longer.
Waning Crescent, 18% of the Moon is Illuminated
Today
Waning Crescent
Apr 29
New
May 6
First Quarter
May 14
Full
May 21
Last Quarter

Yesterday's Extremes

Country Highs Country Lows

Community

  • Storm Clouds & Sunset
    Storm Clouds & Sunset
  • Deer in evening light
    Deer in evening light
  • Critter
    Critter
  • Jone Runs Falls
    Jone Runs Falls
  • Easter in Shenandoah National Park
    Easter in Shenandoah National Park

WunderPhotos

Upload Photos

1,704,876 photos uploaded!

WunderBlogs® & News

Nearby

Snow Depth

Not available.

Coastal Water Temperatures

Place Temperature
No Stations Reporting

Earthquake Activity

City Distance Mag. Time & Date
No recent earthquake activity has been reported nearby.
Minimum magnitude displayed is 2.5.

Nearby Weather Stations

There are no personal weather stations in this area.

What do you think?

We're not finished. Please let us know what you like, what you don't like, and what you are still missing.